createdAt,value
2022-10-10T00:02:23.042Z,7.15
2022-10-10T00:04:53.908Z,7.14
2022-10-10T00:07:22.731Z,7.16
2022-10-10T00:09:52.280Z,7.12
2022-10-10T00:12:20.920Z,7.08
2022-10-10T00:14:49.988Z,7.13
2022-10-10T00:17:18.498Z,7.04
2022-10-10T00:19:46.997Z,7.09
2022-10-10T00:22:16.984Z,7.10
2022-10-10T00:24:46.230Z,7.05
2022-10-10T00:27:14.819Z,7.04
2022-10-10T00:29:44.075Z,6.96
2022-10-10T00:32:13.228Z,6.92
2022-10-10T00:34:42.799Z,6.97
2022-10-10T00:37:12.072Z,6.93
2022-10-10T00:39:42.830Z,6.86
2022-10-10T00:42:13.461Z,6.84
2022-10-10T00:44:42.056Z,6.84
2022-10-10T00:47:13.860Z,6.84
2022-10-10T00:49:46.284Z,6.85
2022-10-10T00:52:14.805Z,6.83
2022-10-10T00:54:44.670Z,6.82
2022-10-10T00:57:16.102Z,6.79
2022-10-10T00:59:47.867Z,6.81
2022-10-10T01:02:17.759Z,6.81
2022-10-10T01:04:47.606Z,6.75
2022-10-10T01:07:23.360Z,6.77
2022-10-10T01:09:57.023Z,6.75
2022-10-10T01:12:37.068Z,6.71
2022-10-10T01:15:17.955Z,6.68
2022-10-10T01:17:56.281Z,6.71
2022-10-10T01:21:14.465Z,6.70
2022-10-10T01:24:32.081Z,6.60
2022-10-10T01:27:31.196Z,6.50
2022-10-10T01:30:08.028Z,6.48
2022-10-10T01:32:49.253Z,6.47
2022-10-10T01:35:41.148Z,6.48
2022-10-10T01:38:26.792Z,6.50
2022-10-10T01:41:05.012Z,6.50
2022-10-10T01:43:34.417Z,6.46
2022-10-10T01:46:14.217Z,6.49
2022-10-10T01:48:46.779Z,6.45
2022-10-10T01:51:39.673Z,6.45
2022-10-10T01:54:42.382Z,6.35
2022-10-10T01:57:25.050Z,6.40
2022-10-10T02:00:09.672Z,6.43
2022-10-10T02:02:52.262Z,6.42
2022-10-10T02:05:29.907Z,6.41
2022-10-10T02:08:06.019Z,6.36
2022-10-10T02:10:41.921Z,6.35
2022-10-10T02:13:14.239Z,6.37
2022-10-10T02:15:49.414Z,6.39
2022-10-10T02:18:27.110Z,6.28
2022-10-10T02:20:57.161Z,6.26
2022-10-10T02:23:26.769Z,6.31
2022-10-10T02:25:58.116Z,6.22
2022-10-10T02:28:37.927Z,6.17
2022-10-10T02:31:14.194Z,6.19
2022-10-10T02:33:57.986Z,6.17
2022-10-10T02:36:30.149Z,6.14
2022-10-10T02:39:00.957Z,6.13
2022-10-10T02:41:32.102Z,6.17
2022-10-10T02:44:01.748Z,6.14
2022-10-10T02:46:30.465Z,6.11
2022-10-10T02:49:02.572Z,6.13
2022-10-10T02:51:31.033Z,6.12
2022-10-10T02:53:59.505Z,6.12
2022-10-10T02:56:28.040Z,6.12
2022-10-10T02:58:57.576Z,6.07
2022-10-10T03:01:26.483Z,6.04
2022-10-10T03:03:55.542Z,6.05
2022-10-10T03:06:26.611Z,6.05
2022-10-10T03:08:55.803Z,6.04
2022-10-10T03:11:24.324Z,6.03
2022-10-10T03:13:53.383Z,6.03
2022-10-10T03:16:21.982Z,6.02
2022-10-10T03:18:50.645Z,6.02
2022-10-10T03:21:20.006Z,6.00
2022-10-10T03:23:50.953Z,6.03
2022-10-10T03:26:20.522Z,5.99
2022-10-10T03:28:49.901Z,5.98
2022-10-10T03:31:19.145Z,5.98
2022-10-10T03:33:47.600Z,5.96
2022-10-10T03:36:16.599Z,5.94
2022-10-10T03:38:45.037Z,5.96
2022-10-10T03:41:15.888Z,5.98
2022-10-10T03:43:44.413Z,5.97
2022-10-10T03:46:16.285Z,5.90
2022-10-10T03:48:45.989Z,5.92
2022-10-10T03:51:15.110Z,5.85
2022-10-10T03:53:44.233Z,5.77
2022-10-10T03:56:14.062Z,5.79
2022-10-10T03:58:42.922Z,5.85
2022-10-10T04:01:12.026Z,5.86
2022-10-10T04:03:41.123Z,5.84
2022-10-10T04:06:09.851Z,5.85
2022-10-10T04:08:38.343Z,5.86
2022-10-10T04:11:07.067Z,5.82
2022-10-10T04:13:36.983Z,5.83
2022-10-10T04:16:06.541Z,5.83
2022-10-10T04:18:35.036Z,5.82
2022-10-10T04:21:04.538Z,5.80
2022-10-10T04:23:33.557Z,5.80
2022-10-10T04:26:02.037Z,5.78
2022-10-10T04:28:30.885Z,5.78
2022-10-10T04:31:01.213Z,5.76
2022-10-10T04:33:29.697Z,5.74
2022-10-10T04:35:58.627Z,5.74
2022-10-10T04:38:27.362Z,5.75
2022-10-10T04:40:55.968Z,5.72
2022-10-10T04:43:24.573Z,5.68
2022-10-10T04:45:53.051Z,5.68
2022-10-10T04:48:23.488Z,5.65
2022-10-10T04:50:57.703Z,5.66
2022-10-10T04:53:27.351Z,5.68
2022-10-10T04:55:56.452Z,5.66
2022-10-10T04:58:25.152Z,5.63
2022-10-10T05:00:55.117Z,5.60
2022-10-10T05:03:26.330Z,5.57
2022-10-10T05:05:55.606Z,5.59
2022-10-10T05:08:24.185Z,5.61
2022-10-10T05:10:55.426Z,5.55
2022-10-10T05:13:24.515Z,5.51
2022-10-10T05:15:54.488Z,5.54
2022-10-10T05:18:25.143Z,5.54
2022-10-10T05:20:53.772Z,5.59
2022-10-10T05:23:22.229Z,5.53
2022-10-10T05:25:52.900Z,5.49
2022-10-10T05:28:21.503Z,5.47
2022-10-10T05:30:52.272Z,5.40
2022-10-10T05:33:20.759Z,5.39
2022-10-10T05:35:50.726Z,5.35
2022-10-10T05:38:19.841Z,5.39
2022-10-10T05:40:49.036Z,5.43
2022-10-10T05:43:18.422Z,5.47
2022-10-10T05:45:47.496Z,5.48
2022-10-10T05:48:16.679Z,5.49
2022-10-10T05:50:52.292Z,5.50
2022-10-10T05:53:20.816Z,5.53
2022-10-10T05:55:49.387Z,5.55
2022-10-10T05:58:18.909Z,5.61
2022-10-10T06:00:49.661Z,5.65
2022-10-10T06:03:18.245Z,5.66
2022-10-10T06:05:49.217Z,5.67
2022-10-10T06:08:19.145Z,5.65
2022-10-10T06:10:48.918Z,5.67
2022-10-10T06:13:24.261Z,5.75
2022-10-10T06:15:55.060Z,5.81
2022-10-10T06:18:23.593Z,5.87
2022-10-10T06:20:52.575Z,5.91
2022-10-10T06:23:23.226Z,5.91
2022-10-10T06:25:54.043Z,5.96
2022-10-10T06:28:23.044Z,6.02
2022-10-10T06:30:53.246Z,6.05
2022-10-10T06:33:22.302Z,6.07
2022-10-10T06:35:51.376Z,6.13
2022-10-10T06:38:21.538Z,6.16
2022-10-10T06:40:50.237Z,6.21
2022-10-10T06:43:19.169Z,6.22
2022-10-10T06:45:51.951Z,6.27
2022-10-10T06:48:20.483Z,6.31
2022-10-10T06:50:59.673Z,6.34
2022-10-10T06:53:30.901Z,6.39
2022-10-10T06:56:00.762Z,6.38
2022-10-10T06:58:31.152Z,6.43
2022-10-10T07:01:03.111Z,6.46
2022-10-10T07:03:32.805Z,6.48
2022-10-10T07:06:03.915Z,6.50
2022-10-10T07:08:34.737Z,6.51
2022-10-10T07:11:03.356Z,6.57
2022-10-10T07:13:31.835Z,6.60
2022-10-10T07:16:00.578Z,6.64
2022-10-10T07:18:29.633Z,6.67
2022-10-10T07:20:59.452Z,6.68
2022-10-10T07:23:28.984Z,6.70
2022-10-10T07:26:05.321Z,6.71
2022-10-10T07:28:34.455Z,6.74
2022-10-10T07:31:06.547Z,6.76
2022-10-10T07:33:38.643Z,6.78
2022-10-10T07:36:08.440Z,6.83
2022-10-10T07:38:38.429Z,6.87
2022-10-10T07:41:10.853Z,6.89
2022-10-10T07:43:40.502Z,6.87
2022-10-10T07:46:18.104Z,6.90
2022-10-10T07:48:49.709Z,6.93
2022-10-10T07:51:18.869Z,6.93
2022-10-10T07:53:47.359Z,6.97
2022-10-10T07:56:17.316Z,7.00
2022-10-10T07:58:45.942Z,7.04
2022-10-10T08:01:15.328Z,7.07
2022-10-10T08:03:45.533Z,7.10
2022-10-10T08:06:17.642Z,7.14
2022-10-10T08:08:51.729Z,7.17
2022-10-10T08:11:23.223Z,7.21
2022-10-10T08:13:54.204Z,7.26
2022-10-10T08:16:23.119Z,7.31
2022-10-10T08:18:51.977Z,7.36
2022-10-10T08:21:20.913Z,7.41
2022-10-10T08:23:49.678Z,7.46
2022-10-10T08:26:21.528Z,7.49
2022-10-10T08:28:50.695Z,7.54
2022-10-10T08:31:22.854Z,7.60
2022-10-10T08:33:53.470Z,7.65
2022-10-10T08:36:24.699Z,7.69
2022-10-10T08:38:59.408Z,7.74
2022-10-10T08:41:41.727Z,7.79
2022-10-10T08:44:23.568Z,7.82
2022-10-10T08:46:58.057Z,7.88
2022-10-10T08:49:35.872Z,7.94
2022-10-10T08:52:16.185Z,8.00
2022-10-10T08:54:47.374Z,8.03
2022-10-10T08:57:29.316Z,8.10
2022-10-10T09:00:07.085Z,8.17
2022-10-10T09:02:56.366Z,8.27
2022-10-10T09:05:48.030Z,8.35
2022-10-10T09:08:48.217Z,8.53
2022-10-10T09:11:36.688Z,8.73
2022-10-10T09:14:27.819Z,9.04
2022-10-10T09:17:06.876Z,9.23
2022-10-10T09:19:51.395Z,9.51
2022-10-10T09:22:24.711Z,9.59
2022-10-10T09:25:00.992Z,9.79
2022-10-10T09:27:36.967Z,9.94
2022-10-10T09:30:16.948Z,10.10
2022-10-10T09:32:56.182Z,10.21
2022-10-10T09:35:28.079Z,10.43
2022-10-10T09:38:09.506Z,10.51
2022-10-10T09:40:47.642Z,10.58
2022-10-10T09:43:21.493Z,10.68
2022-10-10T09:45:56.270Z,10.71
2022-10-10T09:48:30.985Z,10.90
2022-10-10T09:51:00.596Z,10.93
2022-10-10T09:53:29.755Z,10.97
2022-10-10T09:56:00.028Z,11.04
2022-10-10T09:58:38.065Z,11.08
2022-10-10T10:01:20.104Z,11.11
2022-10-10T10:04:30.904Z,11.17
2022-10-10T10:07:08.986Z,11.26
2022-10-10T10:09:38.700Z,11.38
2022-10-10T10:12:08.349Z,11.60
2022-10-10T10:14:39.816Z,11.67
2022-10-10T10:17:15.070Z,11.86
2022-10-10T10:19:46.508Z,11.92
2022-10-10T10:22:34.491Z,12.01
2022-10-10T10:25:32.021Z,12.01
2022-10-10T10:28:23.490Z,12.05
2022-10-10T10:30:56.071Z,12.19
2022-10-10T10:33:51.311Z,12.28
2022-10-10T10:36:39.237Z,12.42
2022-10-10T10:39:30.082Z,12.51
2022-10-10T10:42:11.852Z,12.68
2022-10-10T10:44:49.598Z,12.94
2022-10-10T10:47:38.480Z,13.06
2022-10-10T10:50:51.755Z,13.21
2022-10-10T10:53:33.250Z,13.25
2022-10-10T10:56:19.568Z,13.30
2022-10-10T11:02:55.361Z,13.47
2022-10-10T11:05:42.146Z,13.69
2022-10-10T11:08:40.535Z,13.73
2022-10-10T11:11:34.586Z,13.86
2022-10-10T11:14:18.851Z,13.98
2022-10-10T11:16:55.319Z,14.03
2022-10-10T11:19:33.912Z,14.22
2022-10-10T11:22:10.862Z,14.33
2022-10-10T11:24:48.016Z,14.51
2022-10-10T11:27:25.837Z,14.57
2022-10-10T11:30:08.392Z,14.68
2022-10-10T11:32:47.654Z,14.73
2022-10-10T11:35:31.857Z,14.71
2022-10-10T11:38:16.181Z,14.84
2022-10-10T11:40:58.002Z,14.94
2022-10-10T11:43:39.859Z,15.13
2022-10-10T11:46:28.773Z,15.18
2022-10-10T11:49:10.408Z,15.14
2022-10-10T11:52:21.359Z,15.33
2022-10-10T11:55:03.669Z,15.40
2022-10-10T11:57:40.207Z,15.44
2022-10-10T12:00:14.231Z,15.57
2022-10-10T12:02:44.989Z,15.74
2022-10-10T12:05:23.176Z,15.75
2022-10-10T12:08:08.827Z,15.79
2022-10-10T12:10:46.607Z,15.81
2022-10-10T12:13:32.818Z,15.87
2022-10-10T12:16:07.680Z,15.87
2022-10-10T12:18:45.230Z,15.89
2022-10-10T12:21:17.335Z,15.89
2022-10-10T12:23:50.600Z,15.87
2022-10-10T12:26:24.467Z,15.96
2022-10-10T12:29:06.011Z,15.95
2022-10-10T12:31:38.972Z,15.93
2022-10-10T12:34:42.059Z,15.93
2022-10-10T12:37:26.173Z,15.95
2022-10-10T12:40:22.679Z,15.93
2022-10-10T12:43:25.032Z,16.04
2022-10-10T12:46:28.222Z,16.13
2022-10-10T12:49:18.405Z,16.32
2022-10-10T12:52:01.894Z,16.54
2022-10-10T12:54:39.811Z,16.56
2022-10-10T12:57:19.215Z,16.68
2022-10-10T12:59:49.443Z,16.78
2022-10-10T13:02:26.038Z,16.87
2022-10-10T13:05:01.270Z,16.91
2022-10-10T13:07:30.622Z,16.97
2022-10-10T13:10:11.503Z,17.06
2022-10-10T13:12:43.398Z,17.11
2022-10-10T13:15:23.636Z,17.21
2022-10-10T13:17:52.644Z,17.20
2022-10-10T13:20:37.035Z,17.26
2022-10-10T13:23:09.521Z,17.25
2022-10-10T13:25:41.180Z,17.25
2022-10-10T13:28:18.623Z,17.26
2022-10-10T13:30:49.809Z,17.27
2022-10-10T13:33:22.239Z,17.28
2022-10-10T13:35:52.530Z,17.28
2022-10-10T13:38:27.840Z,17.29
2022-10-10T13:40:56.468Z,17.30
2022-10-10T13:43:24.993Z,17.31
2022-10-10T13:46:01.017Z,17.34
2022-10-10T13:48:40.024Z,17.34
2022-10-10T13:51:12.328Z,17.38
2022-10-10T13:53:53.789Z,17.38
2022-10-10T13:56:29.063Z,17.40
2022-10-10T13:59:08.422Z,17.45
2022-10-10T14:01:41.977Z,17.50
2022-10-10T14:04:22.594Z,17.54
2022-10-10T14:07:00.349Z,17.53
2022-10-10T14:09:37.460Z,17.50
2022-10-10T14:12:09.657Z,17.52
2022-10-10T14:14:47.782Z,17.52
2022-10-10T14:17:18.365Z,17.51
2022-10-10T14:19:49.133Z,17.48
2022-10-10T14:22:18.095Z,17.47
2022-10-10T14:24:46.882Z,17.44
2022-10-10T14:27:24.280Z,17.41
2022-10-10T14:29:54.161Z,17.41
2022-10-10T14:32:25.178Z,17.42
2022-10-10T14:34:53.641Z,17.44
2022-10-10T14:37:27.023Z,17.42
2022-10-10T14:39:56.944Z,17.43
2022-10-10T14:42:28.478Z,17.42
2022-10-10T14:44:56.985Z,17.42
2022-10-10T14:47:27.217Z,17.43
2022-10-10T14:49:57.456Z,17.45
2022-10-10T14:52:25.911Z,17.48
2022-10-10T14:54:54.856Z,17.50
2022-10-10T14:57:23.743Z,17.49
2022-10-10T14:59:52.188Z,17.52
2022-10-10T15:02:23.372Z,17.53
2022-10-10T15:04:53.573Z,17.53
2022-10-10T15:07:22.186Z,17.53
2022-10-10T15:12:43.055Z,17.50
2022-10-10T15:15:13.860Z,17.47
2022-10-10T15:17:45.183Z,17.43
2022-10-10T15:20:15.332Z,17.39
2022-10-10T15:22:46.589Z,17.34
2022-10-10T15:25:15.172Z,17.31
2022-10-10T15:27:43.694Z,17.26
2022-10-10T15:30:13.285Z,17.22
2022-10-10T15:32:42.804Z,17.18
2022-10-10T15:35:18.938Z,17.11
2022-10-10T15:37:48.866Z,17.06
2022-10-10T15:40:20.745Z,17.02
2022-10-10T15:42:50.712Z,16.98
2022-10-10T15:45:43.560Z,16.93
2022-10-10T15:48:08.444Z,16.89
2022-10-10T15:50:44.444Z,16.86
2022-10-10T15:53:13.467Z,16.83
2022-10-10T15:55:47.983Z,16.77
2022-10-10T15:58:17.542Z,16.76
2022-10-10T16:00:46.640Z,16.75
2022-10-10T16:03:15.247Z,16.71
2022-10-10T16:05:45.101Z,16.72
2022-10-10T16:08:15.305Z,16.70
2022-10-10T16:10:46.797Z,16.68
2022-10-10T16:13:15.479Z,16.67
2022-10-10T16:15:44.026Z,16.66
2022-10-10T16:18:12.651Z,16.65
2022-10-10T16:20:41.220Z,16.64
2022-10-10T16:23:13.327Z,16.64
2022-10-10T16:25:41.933Z,16.64
2022-10-10T16:28:10.714Z,16.63
2022-10-10T16:30:39.456Z,16.59
2022-10-10T16:33:08.551Z,16.56
2022-10-10T16:35:38.689Z,16.54
2022-10-10T16:38:07.285Z,16.52
2022-10-10T16:40:38.417Z,16.48
2022-10-10T16:43:07.310Z,16.45
2022-10-10T16:45:35.841Z,16.45
2022-10-10T16:48:04.340Z,16.45
2022-10-10T16:50:32.783Z,16.40
2022-10-10T16:53:02.093Z,16.38
2022-10-10T16:55:30.621Z,16.34
2022-10-10T16:58:01.168Z,16.30
2022-10-10T17:00:29.727Z,16.27
2022-10-10T17:02:58.317Z,16.21
2022-10-10T17:05:26.893Z,16.16
2022-10-10T17:07:55.478Z,16.08
2022-10-10T17:10:24.260Z,16.02
2022-10-10T17:12:52.753Z,15.97
2022-10-10T17:15:22.636Z,15.98
2022-10-10T17:17:51.160Z,15.94
2022-10-10T17:20:19.973Z,15.89
2022-10-10T17:22:48.625Z,15.90
2022-10-10T17:25:17.339Z,15.88
2022-10-10T17:27:45.863Z,15.86
2022-10-10T17:30:16.131Z,15.83
2022-10-10T17:32:46.044Z,15.78
2022-10-10T17:35:14.559Z,15.74
2022-10-10T17:37:43.128Z,15.72
2022-10-10T17:40:12.379Z,15.65
2022-10-10T17:42:40.990Z,15.57
2022-10-10T17:45:12.125Z,15.51
2022-10-10T17:47:41.442Z,15.47
2022-10-10T17:50:13.928Z,15.45
2022-10-10T17:52:43.063Z,15.36
2022-10-10T17:55:11.728Z,15.33
2022-10-10T17:57:40.371Z,15.29
2022-10-10T18:00:10.937Z,15.27
2022-10-10T18:02:39.488Z,15.26
2022-10-10T18:05:09.085Z,15.28
2022-10-10T18:07:38.942Z,15.26
2022-10-10T18:10:08.271Z,15.26
2022-10-10T18:12:37.245Z,15.26
2022-10-10T18:15:06.668Z,15.25
2022-10-10T18:17:35.174Z,15.27
2022-10-10T18:20:03.625Z,15.29
2022-10-10T18:22:32.553Z,15.26
2022-10-10T18:25:02.486Z,15.26
2022-10-10T18:27:31.055Z,15.25
2022-10-10T18:29:59.485Z,15.24
2022-10-10T18:32:28.013Z,15.22
2022-10-10T18:34:57.209Z,15.20
2022-10-10T18:37:28.771Z,15.18
2022-10-10T18:39:58.280Z,15.17
2022-10-10T18:42:29.168Z,15.17
2022-10-10T18:44:57.845Z,15.13
2022-10-10T18:47:26.577Z,15.09
2022-10-10T18:49:55.117Z,15.08
2022-10-10T18:52:25.764Z,15.08
2022-10-10T18:54:54.224Z,15.08
2022-10-10T18:57:22.866Z,15.06
2022-10-10T18:59:54.759Z,15.05
2022-10-10T19:02:23.324Z,15.04
2022-10-10T19:04:51.718Z,15.02
2022-10-10T19:07:20.198Z,15.01
2022-10-10T19:09:48.716Z,15.00
2022-10-10T19:12:20.922Z,14.97
2022-10-10T19:14:51.632Z,14.98
2022-10-10T19:17:21.455Z,14.97
2022-10-10T19:19:50.499Z,14.98
2022-10-10T19:22:19.046Z,15.00
2022-10-10T19:24:47.542Z,15.00
2022-10-10T19:27:15.973Z,15.00
2022-10-10T19:29:44.969Z,14.99
2022-10-10T19:32:13.419Z,15.00
2022-10-10T19:34:43.334Z,14.98
2022-10-10T19:37:11.706Z,14.98
2022-10-10T19:39:40.700Z,14.98
2022-10-10T19:42:09.126Z,14.98
2022-10-10T19:44:37.840Z,14.97
2022-10-10T19:47:06.427Z,14.95
2022-10-10T19:49:34.877Z,14.95
2022-10-10T19:52:04.968Z,14.92
2022-10-10T19:54:33.740Z,14.88
2022-10-10T19:57:04.234Z,14.87
2022-10-10T19:59:32.845Z,14.85
2022-10-10T20:02:01.443Z,14.84
2022-10-10T20:04:30.635Z,14.80
2022-10-10T20:06:59.138Z,14.77
2022-10-10T20:09:29.762Z,14.75
2022-10-10T20:11:58.180Z,14.74
2022-10-10T20:14:26.664Z,14.69
2022-10-10T20:16:56.197Z,14.67
2022-10-10T20:19:24.990Z,14.64
2022-10-10T20:21:53.412Z,14.61
2022-10-10T20:24:22.318Z,14.60
2022-10-10T20:26:52.192Z,14.58
2022-10-10T20:29:20.657Z,14.56
2022-10-10T20:31:49.089Z,14.52
2022-10-10T20:34:17.545Z,14.50
2022-10-10T20:36:46.122Z,14.45
2022-10-10T20:39:15.372Z,14.40
2022-10-10T20:41:44.042Z,14.39
2022-10-10T20:44:15.843Z,14.39
2022-10-10T20:46:46.700Z,14.39
2022-10-10T20:49:18.806Z,14.36
2022-10-10T20:51:50.295Z,14.33
2022-10-10T20:54:21.868Z,14.29
2022-10-10T20:56:50.734Z,14.27
2022-10-10T20:59:22.516Z,14.24
2022-10-10T21:01:52.223Z,14.22
2022-10-10T21:04:20.765Z,14.19
2022-10-10T21:06:49.549Z,14.17
2022-10-10T21:09:18.105Z,14.14
2022-10-10T21:11:50.066Z,14.12
2022-10-10T21:14:20.740Z,14.07
2022-10-10T21:16:50.589Z,14.03
2022-10-10T21:19:19.781Z,14.02
2022-10-10T21:21:48.488Z,14.04
2022-10-10T21:24:17.186Z,14.03
2022-10-10T21:26:49.113Z,14.01
2022-10-10T21:29:20.697Z,14.00
2022-10-10T21:31:50.569Z,14.00
2022-10-10T21:34:19.090Z,13.97
2022-10-10T21:36:47.884Z,13.97
2022-10-10T21:39:16.660Z,13.96
2022-10-10T21:41:45.610Z,13.93
2022-10-10T21:44:15.898Z,13.89
2022-10-10T21:46:45.746Z,13.88
2022-10-10T21:49:15.737Z,13.87
2022-10-10T21:51:47.102Z,13.86
2022-10-10T21:54:16.288Z,13.82
2022-10-10T21:56:44.894Z,13.79
2022-10-10T21:59:14.034Z,13.74
2022-10-10T22:01:44.129Z,13.72
2022-10-10T22:04:13.993Z,13.69
2022-10-10T22:06:43.365Z,13.64
2022-10-10T22:09:11.782Z,13.61
2022-10-10T22:11:40.240Z,13.56
2022-10-10T22:14:08.862Z,13.52
2022-10-10T22:16:37.477Z,13.46
2022-10-10T22:19:06.377Z,13.40
2022-10-10T22:21:36.373Z,13.39
2022-10-10T22:24:08.634Z,13.38
2022-10-10T22:26:37.368Z,13.37
2022-10-10T22:29:06.341Z,13.30
2022-10-10T22:31:37.911Z,13.28
2022-10-10T22:34:08.023Z,13.29
2022-10-10T22:36:38.233Z,13.26
2022-10-10T22:39:08.925Z,13.25
2022-10-10T22:41:37.316Z,13.22
2022-10-10T22:44:06.122Z,13.19
2022-10-10T22:46:34.843Z,13.16
2022-10-10T22:49:03.527Z,13.14
2022-10-10T22:51:32.016Z,13.10
2022-10-10T22:54:04.620Z,13.06
2022-10-10T22:56:34.344Z,13.05
2022-10-10T22:59:02.778Z,13.01
2022-10-10T23:01:31.325Z,12.95
2022-10-10T23:04:04.043Z,12.95
2022-10-10T23:06:32.398Z,12.94
2022-10-10T23:09:01.473Z,12.91
2022-10-10T23:11:31.573Z,12.88
2022-10-10T23:13:59.984Z,12.80
2022-10-10T23:16:30.921Z,12.75
2022-10-10T23:19:02.787Z,12.73
2022-10-10T23:21:31.278Z,12.74
2022-10-10T23:23:59.769Z,12.76
2022-10-10T23:26:28.316Z,12.76
2022-10-10T23:28:58.812Z,12.76
2022-10-10T23:31:27.287Z,12.76
2022-10-10T23:33:55.764Z,12.74
2022-10-10T23:36:24.554Z,12.75
2022-10-10T23:38:52.968Z,12.74
2022-10-10T23:41:21.832Z,12.73
2022-10-10T23:43:50.285Z,12.75
2022-10-10T23:46:20.920Z,12.78
2022-10-10T23:48:51.228Z,12.78
2022-10-10T23:51:19.635Z,12.81
2022-10-10T23:53:48.616Z,12.81
2022-10-10T23:56:17.657Z,12.82
2022-10-10T23:58:46.404Z,12.85
